sensor_id;sensor_type;location;lat;lon;timestamp;pressure;altitude;pressure_sealevel;temperature;humidity
60611;BME280;46439;51.164;13.572;2023-10-13T00:01:26;99828.61;;;19.10;100.00
60611;BME280;46439;51.164;13.572;2023-10-13T00:03:55;99830.20;;;19.14;100.00
60611;BME280;46439;51.164;13.572;2023-10-13T00:06:23;99829.29;;;19.17;100.00
60611;BME280;46439;51.164;13.572;2023-10-13T00:08:55;99822.77;;;19.19;100.00
60611;BME280;46439;51.164;13.572;2023-10-13T00:11:23;99825.15;;;19.23;100.00
60611;BME280;46439;51.164;13.572;2023-10-13T00:13:55;99827.93;;;19.27;100.00
60611;BME280;46439;51.164;13.572;2023-10-13T00:16:24;99831.09;;;19.27;100.00
60611;BME280;46439;51.164;13.572;2023-10-13T00:18:59;99833.49;;;19.27;100.00
60611;BME280;46439;51.164;13.572;2023-10-13T00:21:27;99833.04;;;19.31;100.00
60611;BME280;46439;51.164;13.572;2023-10-13T00:24:05;99833.33;;;19.33;100.00
60611;BME280;46439;51.164;13.572;2023-10-13T00:26:40;99829.20;;;19.35;100.00
60611;BME280;46439;51.164;13.572;2023-10-13T00:29:11;99826.46;;;19.38;100.00
60611;BME280;46439;51.164;13.572;2023-10-13T00:31:46;99825.13;;;19.39;100.00
60611;BME280;46439;51.164;13.572;2023-10-13T00:34:16;99824.36;;;19.42;100.00
60611;BME280;46439;51.164;13.572;2023-10-13T00:36:53;99825.61;;;19.43;100.00
60611;BME280;46439;51.164;13.572;2023-10-13T00:39:46;99829.59;;;19.44;100.00
60611;BME280;46439;51.164;13.572;2023-10-13T00:42:15;99829.53;;;19.43;100.00
60611;BME280;46439;51.164;13.572;2023-10-13T00:44:48;99827.77;;;19.45;100.00
60611;BME280;46439;51.164;13.572;2023-10-13T00:47:23;99828.27;;;19.45;100.00
60611;BME280;46439;51.164;13.572;2023-10-13T00:50:12;99827.88;;;19.43;100.00
60611;BME280;46439;51.164;13.572;2023-10-13T00:52:44;99829.70;;;19.49;100.00
60611;BME280;46439;51.164;13.572;2023-10-13T00:55:21;99830.53;;;19.49;100.00
60611;BME280;46439;51.164;13.572;2023-10-13T00:57:59;99832.48;;;19.45;100.00
60611;BME280;46439;51.164;13.572;2023-10-13T01:00:31;99831.70;;;19.44;100.00
60611;BME280;46439;51.164;13.572;2023-10-13T01:03:01;99831.43;;;19.42;100.00
60611;BME280;46439;51.164;13.572;2023-10-13T01:05:41;99834.08;;;19.38;100.00
60611;BME280;46439;51.164;13.572;2023-10-13T01:08:10;99829.03;;;19.42;100.00
60611;BME280;46439;51.164;13.572;2023-10-13T01:10:40;99827.38;;;19.45;100.00
60611;BME280;46439;51.164;13.572;2023-10-13T01:13:10;99830.95;;;19.48;100.00
60611;BME280;46439;51.164;13.572;2023-10-13T01:15:39;99829.30;;;19.47;100.00
60611;BME280;46439;51.164;13.572;2023-10-13T01:18:09;99833.29;;;19.47;100.00
60611;BME280;46439;51.164;13.572;2023-10-13T01:20:42;99831.12;;;19.48;100.00
60611;BME280;46439;51.164;13.572;2023-10-13T01:23:15;99836.09;;;19.50;100.00
60611;BME280;46439;51.164;13.572;2023-10-13T01:25:45;99836.31;;;19.47;100.00
60611;BME280;46439;51.164;13.572;2023-10-13T01:28:14;99836.38;;;19.43;100.00
60611;BME280;46439;51.164;13.572;2023-10-13T01:30:44;99835.48;;;19.47;100.00
60611;BME280;46439;51.164;13.572;2023-10-13T01:33:20;99835.95;;;19.51;100.00
60611;BME280;46439;51.164;13.572;2023-10-13T01:35:56;99834.48;;;19.52;100.00
60611;BME280;46439;51.164;13.572;2023-10-13T01:38:27;99834.98;;;19.51;100.00
60611;BME280;46439;51.164;13.572;2023-10-13T01:41:01;99832.42;;;19.50;100.00
60611;BME280;46439;51.164;13.572;2023-10-13T01:43:32;99832.38;;;19.48;100.00
60611;BME280;46439;51.164;13.572;2023-10-13T01:46:03;99836.09;;;19.47;100.00
60611;BME280;46439;51.164;13.572;2023-10-13T01:48:32;99836.09;;;19.47;100.00
60611;BME280;46439;51.164;13.572;2023-10-13T01:51:00;99836.52;;;19.45;100.00
60611;BME280;46439;51.164;13.572;2023-10-13T01:53:32;99835.92;;;19.45;100.00
60611;BME280;46439;51.164;13.572;2023-10-13T01:56:01;99837.05;;;19.41;100.00
60611;BME280;46439;51.164;13.572;2023-10-13T01:58:33;99834.30;;;19.31;100.00
60611;BME280;46439;51.164;13.572;2023-10-13T02:01:02;99832.71;;;19.21;100.00
60611;BME280;46439;51.164;13.572;2023-10-13T02:03:32;99830.23;;;19.12;100.00
60611;BME280;46439;51.164;13.572;2023-10-13T02:06:01;99826.73;;;19.06;100.00
60611;BME280;46439;51.164;13.572;2023-10-13T02:08:33;99828.60;;;19.13;100.00
60611;BME280;46439;51.164;13.572;2023-10-13T02:11:04;99831.55;;;19.18;100.00
60611;BME280;46439;51.164;13.572;2023-10-13T02:13:36;99831.43;;;19.18;100.00
60611;BME280;46439;51.164;13.572;2023-10-13T02:16:17;99830.02;;;19.14;100.00
60611;BME280;46439;51.164;13.572;2023-10-13T02:18:47;99825.42;;;19.16;100.00
60611;BME280;46439;51.164;13.572;2023-10-13T02:21:18;99825.88;;;19.18;100.00
60611;BME280;46439;51.164;13.572;2023-10-13T02:23:47;99822.52;;;19.15;100.00
60611;BME280;46439;51.164;13.572;2023-10-13T02:26:30;99828.03;;;19.10;100.00
60611;BME280;46439;51.164;13.572;2023-10-13T02:29:01;99825.96;;;19.06;100.00
60611;BME280;46439;51.164;13.572;2023-10-13T02:31:36;99816.58;;;19.05;100.00
60611;BME280;46439;51.164;13.572;2023-10-13T02:34:05;99817.77;;;19.07;100.00
60611;BME280;46439;51.164;13.572;2023-10-13T02:36:38;99810.20;;;19.04;100.00
60611;BME280;46439;51.164;13.572;2023-10-13T02:39:17;99803.42;;;19.02;100.00
60611;BME280;46439;51.164;13.572;2023-10-13T02:41:52;99802.45;;;19.05;100.00
60611;BME280;46439;51.164;13.572;2023-10-13T02:44:23;99803.38;;;19.05;100.00
60611;BME280;46439;51.164;13.572;2023-10-13T02:46:56;99803.98;;;18.99;100.00
60611;BME280;46439;51.164;13.572;2023-10-13T02:49:25;99806.00;;;19.01;100.00
60611;BME280;46439;51.164;13.572;2023-10-13T02:51:55;99805.66;;;19.06;100.00
60611;BME280;46439;51.164;13.572;2023-10-13T02:54:30;99800.55;;;19.12;100.00
60611;BME280;46439;51.164;13.572;2023-10-13T02:56:59;99791.98;;;19.15;100.00
60611;BME280;46439;51.164;13.572;2023-10-13T02:59:32;99789.77;;;19.17;100.00
60611;BME280;46439;51.164;13.572;2023-10-13T03:02:15;99784.45;;;19.22;100.00
60611;BME280;46439;51.164;13.572;2023-10-13T03:04:55;99781.85;;;19.26;100.00
60611;BME280;46439;51.164;13.572;2023-10-13T03:07:28;99789.05;;;19.29;100.00
60611;BME280;46439;51.164;13.572;2023-10-13T03:09:59;99786.19;;;19.31;100.00
60611;BME280;46439;51.164;13.572;2023-10-13T03:12:39;99783.14;;;19.24;100.00
60611;BME280;46439;51.164;13.572;2023-10-13T03:15:09;99784.07;;;19.24;100.00
60611;BME280;46439;51.164;13.572;2023-10-13T03:18:01;99785.98;;;19.16;100.00
60611;BME280;46439;51.164;13.572;2023-10-13T03:20:30;99779.20;;;19.17;100.00
60611;BME280;46439;51.164;13.572;2023-10-13T03:23:00;99776.77;;;19.21;100.00
60611;BME280;46439;51.164;13.572;2023-10-13T03:25:32;99767.97;;;19.23;100.00
60611;BME280;46439;51.164;13.572;2023-10-13T03:28:10;99754.38;;;19.23;100.00
60611;BME280;46439;51.164;13.572;2023-10-13T03:30:45;99753.74;;;19.27;100.00
60611;BME280;46439;51.164;13.572;2023-10-13T03:33:15;99755.08;;;19.25;100.00
60611;BME280;46439;51.164;13.572;2023-10-13T03:35:54;99756.58;;;19.29;100.00
60611;BME280;46439;51.164;13.572;2023-10-13T03:38:22;99755.01;;;19.31;100.00
60611;BME280;46439;51.164;13.572;2023-10-13T03:40:55;99756.64;;;19.36;100.00
60611;BME280;46439;51.164;13.572;2023-10-13T03:43:40;99755.18;;;19.37;100.00
60611;BME280;46439;51.164;13.572;2023-10-13T03:46:20;99748.52;;;19.36;100.00
60611;BME280;46439;51.164;13.572;2023-10-13T03:48:51;99742.80;;;19.37;100.00
60611;BME280;46439;51.164;13.572;2023-10-13T03:51:21;99747.48;;;19.41;100.00
60611;BME280;46439;51.164;13.572;2023-10-13T03:53:49;99747.03;;;19.43;100.00
60611;BME280;46439;51.164;13.572;2023-10-13T03:56:22;99744.27;;;19.44;100.00
60611;BME280;46439;51.164;13.572;2023-10-13T03:58:57;99739.51;;;19.42;100.00
60611;BME280;46439;51.164;13.572;2023-10-13T04:01:34;99733.52;;;19.40;100.00
60611;BME280;46439;51.164;13.572;2023-10-13T04:04:12;99736.50;;;19.36;100.00
60611;BME280;46439;51.164;13.572;2023-10-13T04:06:42;99736.95;;;19.35;100.00
60611;BME280;46439;51.164;13.572;2023-10-13T04:09:16;99735.89;;;19.34;100.00
60611;BME280;46439;51.164;13.572;2023-10-13T04:11:57;99730.27;;;19.32;100.00
60611;BME280;46439;51.164;13.572;2023-10-13T04:14:34;99730.58;;;19.29;100.00
60611;BME280;46439;51.164;13.572;2023-10-13T04:17:41;99730.81;;;19.24;100.00
60611;BME280;46439;51.164;13.572;2023-10-13T04:20:13;99730.20;;;19.19;100.00
60611;BME280;46439;51.164;13.572;2023-10-13T04:22:47;99725.72;;;19.20;100.00
60611;BME280;46439;51.164;13.572;2023-10-13T04:25:18;99723.30;;;19.23;100.00
60611;BME280;46439;51.164;13.572;2023-10-13T04:28:07;99725.11;;;19.21;100.00
60611;BME280;46439;51.164;13.572;2023-10-13T04:30:43;99716.55;;;19.20;100.00
60611;BME280;46439;51.164;13.572;2023-10-13T04:33:35;99710.87;;;19.15;100.00
60611;BME280;46439;51.164;13.572;2023-10-13T04:36:04;99705.08;;;19.16;100.00
60611;BME280;46439;51.164;13.572;2023-10-13T04:38:44;99701.17;;;19.20;100.00
60611;BME280;46439;51.164;13.572;2023-10-13T04:41:33;99707.70;;;19.21;100.00
60611;BME280;46439;51.164;13.572;2023-10-13T04:44:14;99710.23;;;19.20;100.00
60611;BME280;46439;51.164;13.572;2023-10-13T04:46:59;99710.84;;;19.21;100.00
60611;BME280;46439;51.164;13.572;2023-10-13T04:49:29;99714.28;;;19.24;100.00
60611;BME280;46439;51.164;13.572;2023-10-13T04:52:05;99715.08;;;19.25;100.00
60611;BME280;46439;51.164;13.572;2023-10-13T04:54:37;99712.11;;;19.25;100.00
60611;BME280;46439;51.164;13.572;2023-10-13T04:57:23;99712.41;;;19.26;100.00
60611;BME280;46439;51.164;13.572;2023-10-13T05:00:13;99711.89;;;19.27;100.00
60611;BME280;46439;51.164;13.572;2023-10-13T05:03:03;99703.81;;;19.23;100.00
60611;BME280;46439;51.164;13.572;2023-10-13T05:05:50;99705.44;;;19.19;100.00
60611;BME280;46439;51.164;13.572;2023-10-13T05:08:37;99705.84;;;19.16;100.00
60611;BME280;46439;51.164;13.572;2023-10-13T05:11:24;99707.66;;;19.14;100.00
60611;BME280;46439;51.164;13.572;2023-10-13T05:14:12;99705.20;;;19.08;100.00
60611;BME280;46439;51.164;13.572;2023-10-13T05:16:59;99710.63;;;19.07;100.00
60611;BME280;46439;51.164;13.572;2023-10-13T05:19:47;99711.70;;;19.05;100.00
60611;BME280;46439;51.164;13.572;2023-10-13T05:22:34;99711.39;;;19.04;100.00
60611;BME280;46439;51.164;13.572;2023-10-13T05:25:21;99713.75;;;18.99;100.00
60611;BME280;46439;51.164;13.572;2023-10-13T05:28:09;99710.55;;;18.95;100.00
60611;BME280;46439;51.164;13.572;2023-10-13T05:31:00;99707.80;;;18.99;100.00
60611;BME280;46439;51.164;13.572;2023-10-13T05:33:47;99712.23;;;19.02;100.00
60611;BME280;46439;51.164;13.572;2023-10-13T05:36:35;99717.33;;;18.95;100.00
60611;BME280;46439;51.164;13.572;2023-10-13T05:39:23;99715.59;;;18.93;100.00
60611;BME280;46439;51.164;13.572;2023-10-13T05:42:10;99715.29;;;18.92;100.00
60611;BME280;46439;51.164;13.572;2023-10-13T05:44:57;99712.13;;;18.91;100.00
60611;BME280;46439;51.164;13.572;2023-10-13T05:47:45;99718.81;;;18.88;100.00
60611;BME280;46439;51.164;13.572;2023-10-13T05:50:14;99718.99;;;18.86;100.00
60611;BME280;46439;51.164;13.572;2023-10-13T05:52:49;99722.30;;;18.87;100.00
60611;BME280;46439;51.164;13.572;2023-10-13T05:55:26;99725.61;;;18.77;100.00
60611;BME280;46439;51.164;13.572;2023-10-13T05:58:13;99725.84;;;18.76;100.00
60611;BME280;46439;51.164;13.572;2023-10-13T06:01:01;99731.62;;;18.75;100.00
60611;BME280;46439;51.164;13.572;2023-10-13T06:03:48;99732.92;;;18.81;100.00
60611;BME280;46439;51.164;13.572;2023-10-13T06:06:35;99735.83;;;18.86;100.00
60611;BME280;46439;51.164;13.572;2023-10-13T06:09:24;99738.81;;;18.89;100.00
60611;BME280;46439;51.164;13.572;2023-10-13T06:12:11;99742.39;;;18.93;100.00
60611;BME280;46439;51.164;13.572;2023-10-13T06:14:59;99740.58;;;18.94;100.00
60611;BME280;46439;51.164;13.572;2023-10-13T06:18:03;99738.92;;;18.96;100.00
60611;BME280;46439;51.164;13.572;2023-10-13T06:20:51;99737.67;;;19.00;100.00
60611;BME280;46439;51.164;13.572;2023-10-13T06:23:38;99737.74;;;19.06;100.00
60611;BME280;46439;51.164;13.572;2023-10-13T06:26:25;99735.59;;;19.12;100.00
60611;BME280;46439;51.164;13.572;2023-10-13T06:29:13;99737.33;;;19.16;100.00
60611;BME280;46439;51.164;13.572;2023-10-13T06:31:48;99734.04;;;19.21;100.00
60611;BME280;46439;51.164;13.572;2023-10-13T06:34:17;99729.77;;;19.24;100.00
60611;BME280;46439;51.164;13.572;2023-10-13T06:36:48;99728.92;;;19.28;100.00
60611;BME280;46439;51.164;13.572;2023-10-13T06:39:17;99726.91;;;19.32;100.00
60611;BME280;46439;51.164;13.572;2023-10-13T06:42:04;99725.67;;;19.35;100.00
60611;BME280;46439;51.164;13.572;2023-10-13T06:44:32;99726.21;;;19.31;100.00
60611;BME280;46439;51.164;13.572;2023-10-13T06:47:01;99722.67;;;19.35;100.00
60611;BME280;46439;51.164;13.572;2023-10-13T06:49:32;99723.21;;;19.40;100.00
60611;BME280;46439;51.164;13.572;2023-10-13T06:52:07;99727.15;;;19.43;100.00
60611;BME280;46439;51.164;13.572;2023-10-13T06:54:35;99721.90;;;19.46;100.00
60611;BME280;46439;51.164;13.572;2023-10-13T06:57:05;99725.19;;;19.49;100.00
60611;BME280;46439;51.164;13.572;2023-10-13T06:59:39;99724.27;;;19.50;100.00
60611;BME280;46439;51.164;13.572;2023-10-13T07:02:08;99721.02;;;19.51;100.00
60611;BME280;46439;51.164;13.572;2023-10-13T07:04:38;99722.34;;;19.57;100.00
60611;BME280;46439;51.164;13.572;2023-10-13T07:07:07;99724.65;;;19.63;100.00
60611;BME280;46439;51.164;13.572;2023-10-13T07:09:38;99723.66;;;19.63;100.00
60611;BME280;46439;51.164;13.572;2023-10-13T07:12:17;99716.96;;;19.66;100.00
60611;BME280;46439;51.164;13.572;2023-10-13T07:14:55;99717.41;;;19.71;100.00
60611;BME280;46439;51.164;13.572;2023-10-13T07:17:53;99719.59;;;19.74;100.00
60611;BME280;46439;51.164;13.572;2023-10-13T07:20:27;99718.59;;;19.80;100.00
60611;BME280;46439;51.164;13.572;2023-10-13T07:22:56;99716.92;;;19.84;100.00
60611;BME280;46439;51.164;13.572;2023-10-13T07:25:34;99716.99;;;19.88;100.00
60611;BME280;46439;51.164;13.572;2023-10-13T07:28:08;99719.29;;;19.93;100.00
60611;BME280;46439;51.164;13.572;2023-10-13T07:30:38;99715.11;;;20.03;100.00
60611;BME280;46439;51.164;13.572;2023-10-13T07:33:22;99715.82;;;20.12;100.00
60611;BME280;46439;51.164;13.572;2023-10-13T07:36:01;99712.76;;;20.19;100.00
60611;BME280;46439;51.164;13.572;2023-10-13T07:38:38;99708.28;;;20.27;100.00
60611;BME280;46439;51.164;13.572;2023-10-13T07:41:06;99703.02;;;20.30;100.00
60611;BME280;46439;51.164;13.572;2023-10-13T07:43:37;99702.39;;;20.35;100.00
60611;BME280;46439;51.164;13.572;2023-10-13T07:46:06;99694.78;;;20.43;100.00
60611;BME280;46439;51.164;13.572;2023-10-13T07:48:38;99693.17;;;20.49;100.00
60611;BME280;46439;51.164;13.572;2023-10-13T07:51:09;99685.52;;;20.53;100.00
60611;BME280;46439;51.164;13.572;2023-10-13T07:53:45;99674.34;;;20.58;100.00
60611;BME280;46439;51.164;13.572;2023-10-13T07:56:17;99674.38;;;20.63;100.00
60611;BME280;46439;51.164;13.572;2023-10-13T07:58:47;99667.17;;;20.72;100.00
60611;BME280;46439;51.164;13.572;2023-10-13T08:01:21;99662.52;;;20.77;100.00
60611;BME280;46439;51.164;13.572;2023-10-13T08:03:50;99657.02;;;20.80;100.00
60611;BME280;46439;51.164;13.572;2023-10-13T08:06:32;99651.30;;;20.86;100.00
60611;BME280;46439;51.164;13.572;2023-10-13T08:09:04;99649.77;;;20.92;100.00
60611;BME280;46439;51.164;13.572;2023-10-13T08:11:37;99648.17;;;21.01;100.00
60611;BME280;46439;51.164;13.572;2023-10-13T08:14:06;99653.14;;;21.07;100.00
60611;BME280;46439;51.164;13.572;2023-10-13T08:16:46;99647.80;;;21.14;100.00
60611;BME280;46439;51.164;13.572;2023-10-13T08:19:22;99649.44;;;21.18;100.00
60611;BME280;46439;51.164;13.572;2023-10-13T08:22:10;99649.23;;;21.21;100.00
60611;BME280;46439;51.164;13.572;2023-10-13T08:24:49;99649.46;;;21.20;100.00
60611;BME280;46439;51.164;13.572;2023-10-13T08:27:20;99649.86;;;21.20;100.00
60611;BME280;46439;51.164;13.572;2023-10-13T08:30:10;99649.64;;;21.22;100.00
60611;BME280;46439;51.164;13.572;2023-10-13T08:32:58;99649.28;;;21.24;100.00
60611;BME280;46439;51.164;13.572;2023-10-13T08:35:28;99647.46;;;21.28;100.00
60611;BME280;46439;51.164;13.572;2023-10-13T08:38:04;99646.80;;;21.32;100.00
60611;BME280;46439;51.164;13.572;2023-10-13T08:40:33;99648.31;;;21.35;100.00
60611;BME280;46439;51.164;13.572;2023-10-13T08:43:22;99647.85;;;21.38;100.00
60611;BME280;46439;51.164;13.572;2023-10-13T08:45:53;99646.58;;;21.41;100.00
60611;BME280;46439;51.164;13.572;2023-10-13T08:48:27;99642.02;;;21.45;100.00
60611;BME280;46439;51.164;13.572;2023-10-13T08:50:59;99638.01;;;21.50;100.00
60611;BME280;46439;51.164;13.572;2023-10-13T08:53:37;99637.10;;;21.52;100.00
60611;BME280;46439;51.164;13.572;2023-10-13T08:56:15;99633.27;;;21.54;100.00
60611;BME280;46439;51.164;13.572;2023-10-13T08:58:46;99632.48;;;21.57;100.00
60611;BME280;46439;51.164;13.572;2023-10-13T09:01:23;99627.50;;;21.59;100.00
60611;BME280;46439;51.164;13.572;2023-10-13T09:04:11;99622.55;;;21.64;100.00
60611;BME280;46439;51.164;13.572;2023-10-13T09:06:47;99618.20;;;21.68;100.00
60611;BME280;46439;51.164;13.572;2023-10-13T09:09:26;99612.02;;;21.72;100.00
60611;BME280;46439;51.164;13.572;2023-10-13T09:11:56;99612.65;;;21.74;100.00
60611;BME280;46439;51.164;13.572;2023-10-13T09:14:39;99612.69;;;21.78;100.00
60611;BME280;46439;51.164;13.572;2023-10-13T09:17:13;99614.75;;;21.82;100.00
60611;BME280;46439;51.164;13.572;2023-10-13T09:19:49;99614.92;;;21.88;100.00
60611;BME280;46439;51.164;13.572;2023-10-13T09:22:27;99617.73;;;21.88;100.00
60611;BME280;46439;51.164;13.572;2023-10-13T09:25:00;99607.84;;;21.90;100.00
60611;BME280;46439;51.164;13.572;2023-10-13T09:27:30;99604.38;;;21.89;100.00
60611;BME280;46439;51.164;13.572;2023-10-13T09:30:02;99602.55;;;21.95;100.00
60611;BME280;46439;51.164;13.572;2023-10-13T09:32:46;99601.09;;;21.96;100.00
60611;BME280;46439;51.164;13.572;2023-10-13T09:35:22;99600.31;;;21.97;100.00
60611;BME280;46439;51.164;13.572;2023-10-13T09:37:55;99598.60;;;21.96;100.00
60611;BME280;46439;51.164;13.572;2023-10-13T09:40:26;99594.98;;;21.96;100.00
60611;BME280;46439;51.164;13.572;2023-10-13T09:43:02;99592.68;;;21.98;100.00
60611;BME280;46439;51.164;13.572;2023-10-13T09:45:36;99588.30;;;22.00;100.00
60611;BME280;46439;51.164;13.572;2023-10-13T09:48:11;99587.73;;;22.04;100.00
60611;BME280;46439;51.164;13.572;2023-10-13T09:50:50;99579.00;;;22.06;100.00
60611;BME280;46439;51.164;13.572;2023-10-13T09:53:19;99576.21;;;22.09;100.00
60611;BME280;46439;51.164;13.572;2023-10-13T09:55:56;99578.04;;;22.18;100.00
60611;BME280;46439;51.164;13.572;2023-10-13T09:58:31;99575.52;;;22.20;100.00
60611;BME280;46439;51.164;13.572;2023-10-13T10:01:08;99574.77;;;22.23;100.00
60611;BME280;46439;51.164;13.572;2023-10-13T10:03:47;99572.95;;;22.26;100.00
60611;BME280;46439;51.164;13.572;2023-10-13T10:06:50;99573.49;;;22.35;100.00
60611;BME280;46439;51.164;13.572;2023-10-13T10:09:25;99564.77;;;22.37;100.00
60611;BME280;46439;51.164;13.572;2023-10-13T10:12:28;99569.66;;;22.39;100.00
60611;BME280;46439;51.164;13.572;2023-10-13T10:15:22;99559.73;;;22.42;100.00
60611;BME280;46439;51.164;13.572;2023-10-13T10:17:59;99565.05;;;22.39;100.00
60611;BME280;46439;51.164;13.572;2023-10-13T10:20:32;99562.45;;;22.37;100.00
60611;BME280;46439;51.164;13.572;2023-10-13T10:23:08;99553.33;;;22.37;100.00
60611;BME280;46439;51.164;13.572;2023-10-13T10:25:57;99548.65;;;22.37;100.00
60611;BME280;46439;51.164;13.572;2023-10-13T10:28:44;99552.62;;;22.38;100.00
60611;BME280;46439;51.164;13.572;2023-10-13T10:31:13;99550.95;;;22.37;100.00
60611;BME280;46439;51.164;13.572;2023-10-13T10:33:53;99548.06;;;22.39;100.00
60611;BME280;46439;51.164;13.572;2023-10-13T10:36:31;99547.12;;;22.39;100.00
60611;BME280;46439;51.164;13.572;2023-10-13T10:39:00;99549.42;;;22.36;100.00
60611;BME280;46439;51.164;13.572;2023-10-13T10:41:29;99548.14;;;22.33;100.00
60611;BME280;46439;51.164;13.572;2023-10-13T10:44:13;99543.06;;;22.33;100.00
60611;BME280;46439;51.164;13.572;2023-10-13T10:46:44;99541.31;;;22.32;100.00
60611;BME280;46439;51.164;13.572;2023-10-13T10:49:27;99540.16;;;22.35;100.00
60611;BME280;46439;51.164;13.572;2023-10-13T10:52:00;99537.52;;;22.34;100.00
60611;BME280;46439;51.164;13.572;2023-10-13T10:54:36;99534.27;;;22.33;100.00
60611;BME280;46439;51.164;13.572;2023-10-13T10:57:14;99533.31;;;22.36;100.00
60611;BME280;46439;51.164;13.572;2023-10-13T10:59:48;99529.68;;;22.39;100.00
60611;BME280;46439;51.164;13.572;2023-10-13T11:02:37;99525.35;;;22.42;100.00
60611;BME280;46439;51.164;13.572;2023-10-13T11:05:07;99522.06;;;22.44;100.00
60611;BME280;46439;51.164;13.572;2023-10-13T11:07:46;99517.26;;;22.50;100.00
60611;BME280;46439;51.164;13.572;2023-10-13T11:10:21;99511.65;;;22.50;100.00
60611;BME280;46439;51.164;13.572;2023-10-13T11:13:00;99510.31;;;22.49;100.00
60611;BME280;46439;51.164;13.572;2023-10-13T11:15:44;99505.38;;;22.51;100.00
60611;BME280;46439;51.164;13.572;2023-10-13T11:18:13;99497.45;;;22.53;100.00
60611;BME280;46439;51.164;13.572;2023-10-13T11:20:49;99492.84;;;22.55;100.00
60611;BME280;46439;51.164;13.572;2023-10-13T11:23:24;99489.70;;;22.53;100.00
60611;BME280;46439;51.164;13.572;2023-10-13T11:25:57;99489.06;;;22.54;100.00
60611;BME280;46439;51.164;13.572;2023-10-13T11:28:27;99489.48;;;22.55;100.00
60611;BME280;46439;51.164;13.572;2023-10-13T11:30:57;99487.69;;;22.56;100.00
60611;BME280;46439;51.164;13.572;2023-10-13T11:33:44;99483.51;;;22.58;100.00
60611;BME280;46439;51.164;13.572;2023-10-13T11:36:16;99478.17;;;22.59;100.00
60611;BME280;46439;51.164;13.572;2023-10-13T11:38:53;99478.58;;;22.61;100.00
60611;BME280;46439;51.164;13.572;2023-10-13T11:41:26;99476.05;;;22.68;100.00
60611;BME280;46439;51.164;13.572;2023-10-13T11:44:02;99468.14;;;22.74;100.00
60611;BME280;46439;51.164;13.572;2023-10-13T11:46:41;99462.94;;;22.80;100.00
60611;BME280;46439;51.164;13.572;2023-10-13T11:49:16;99453.87;;;22.85;100.00
60611;BME280;46439;51.164;13.572;2023-10-13T11:51:46;99443.95;;;22.86;100.00
60611;BME280;46439;51.164;13.572;2023-10-13T11:54:15;99439.34;;;22.89;100.00
60611;BME280;46439;51.164;13.572;2023-10-13T11:56:44;99438.23;;;22.90;100.00
60611;BME280;46439;51.164;13.572;2023-10-13T11:59:13;99433.61;;;22.91;100.00
60611;BME280;46439;51.164;13.572;2023-10-13T12:01:46;99434.17;;;22.93;100.00
60611;BME280;46439;51.164;13.572;2023-10-13T12:04:34;99431.31;;;22.94;100.00
60611;BME280;46439;51.164;13.572;2023-10-13T12:07:20;99427.67;;;22.93;100.00
60611;BME280;46439;51.164;13.572;2023-10-13T12:09:51;99424.04;;;22.94;100.00
60611;BME280;46439;51.164;13.572;2023-10-13T12:12:22;99422.95;;;22.99;100.00
60611;BME280;46439;51.164;13.572;2023-10-13T12:14:51;99420.26;;;22.99;100.00
60611;BME280;46439;51.164;13.572;2023-10-13T12:17:25;99416.40;;;22.99;100.00
60611;BME280;46439;51.164;13.572;2023-10-13T12:19:56;99408.11;;;23.02;100.00
60611;BME280;46439;51.164;13.572;2023-10-13T12:22:25;99407.56;;;23.05;100.00
60611;BME280;46439;51.164;13.572;2023-10-13T12:24:57;99403.70;;;23.05;100.00
60611;BME280;46439;51.164;13.572;2023-10-13T12:27:26;99403.00;;;23.06;100.00
60611;BME280;46439;51.164;13.572;2023-10-13T12:30:05;99395.36;;;23.09;100.00
60611;BME280;46439;51.164;13.572;2023-10-13T12:32:36;99394.25;;;23.16;100.00
60611;BME280;46439;51.164;13.572;2023-10-13T12:35:06;99392.21;;;23.22;100.00
60611;BME280;46439;51.164;13.572;2023-10-13T12:37:34;99389.78;;;23.27;100.00
60611;BME280;46439;51.164;13.572;2023-10-13T12:40:08;99396.05;;;23.31;100.00
60611;BME280;46439;51.164;13.572;2023-10-13T12:42:56;99397.74;;;23.38;100.00
60611;BME280;46439;51.164;13.572;2023-10-13T12:45:44;99393.41;;;23.43;100.00
60611;BME280;46439;51.164;13.572;2023-10-13T12:48:32;99391.85;;;23.47;100.00
60611;BME280;46439;51.164;13.572;2023-10-13T12:51:21;99382.14;;;23.51;100.00
60611;BME280;46439;51.164;13.572;2023-10-13T12:54:00;99382.69;;;23.57;100.00
60611;BME280;46439;51.164;13.572;2023-10-13T12:56:42;99374.14;;;23.61;100.00
60611;BME280;46439;51.164;13.572;2023-10-13T12:59:11;99367.85;;;23.64;100.00
60611;BME280;46439;51.164;13.572;2023-10-13T13:01:43;99360.91;;;23.65;100.00
60611;BME280;46439;51.164;13.572;2023-10-13T13:04:12;99355.61;;;23.66;100.00
60611;BME280;46439;51.164;13.572;2023-10-13T13:06:50;99350.70;;;23.67;100.00
60611;BME280;46439;51.164;13.572;2023-10-13T13:09:18;99341.05;;;23.71;100.00
60611;BME280;46439;51.164;13.572;2023-10-13T13:11:54;99336.62;;;23.74;100.00
60611;BME280;46439;51.164;13.572;2023-10-13T13:14:26;99330.84;;;23.80;100.00
60611;BME280;46439;51.164;13.572;2023-10-13T13:16:57;99329.84;;;23.83;100.00
60611;BME280;46439;51.164;13.572;2023-10-13T13:19:33;99328.67;;;23.85;100.00
60611;BME280;46439;51.164;13.572;2023-10-13T13:22:02;99319.25;;;23.85;100.00
60611;BME280;46439;51.164;13.572;2023-10-13T13:24:40;99314.06;;;23.87;100.00
60611;BME280;46439;51.164;13.572;2023-10-13T13:27:10;99307.15;;;23.89;100.00